AFR7440 LFPG-LFBD
Flight info
| Callsign | AFR7440 |
|---|---|
| Flight time | N/A |
| Altitude | 30000 |
| Route | AGOP6G AGOPA DCT ARKIP DCT ARNAV DCT LMG LMG2L |
| Aircraft | A20N/M-SDE2E3FGHIRWXY/LB1 |
Departure
| Time | 2026-05-04 20:23 |
|---|---|
| Airport | Charles de Gaulle International Airport (LFPG) |
Arrival
| Time | N/A |
|---|---|
| Airport | Bordeaux–Mérignac Airport (LFBD) |
| Time | Latitude | Longitude | Altitude | Speed | Heading |
|---|---|---|---|---|---|
| 2026-05-04 19:45 | 49.01297 | 2.53817 | 372 ft | 0 kts | 109° |
| 2026-05-04 20:12 | 49.01297 | 2.53816 | 372 ft | 0 kts | 109° |
| 2026-05-04 20:12 | 49.01302 | 2.53797 | 372 ft | 2 kts | 112° |
| 2026-05-04 20:12 | 49.01307 | 2.53775 | 372 ft | 2 kts | 109° |
| 2026-05-04 20:13 | 49.01311 | 2.53760 | 372 ft | 0 kts | 110° |
| 2026-05-04 20:13 | 49.01314 | 2.53740 | 372 ft | 2 kts | 89° |
| 2026-05-04 20:13 | 49.01311 | 2.53717 | 372 ft | 2 kts | 69° |
| 2026-05-04 20:13 | 49.01304 | 2.53697 | 372 ft | 2 kts | 48° |
| 2026-05-04 20:14 | 49.01292 | 2.53683 | 372 ft | 2 kts | 27° |
| 2026-05-04 20:14 | 49.01278 | 2.53676 | 372 ft | 2 kts | 6° |
| 2026-05-04 20:14 | 49.01263 | 2.53677 | 372 ft | 2 kts | 345° |
| 2026-05-04 20:14 | 49.01255 | 2.53682 | 372 ft | 1 kts | 333° |
| 2026-05-04 20:15 | 49.01251 | 2.53686 | 372 ft | 0 kts | 333° |
| 2026-05-04 20:18 | 49.01261 | 2.53677 | 372 ft | 5 kts | 331° |
| 2026-05-04 20:18 | 49.01323 | 2.53635 | 372 ft | 12 kts | 342° |
| 2026-05-04 20:18 | 49.01416 | 2.53610 | 372 ft | 14 kts | 357° |
| 2026-05-04 20:18 | 49.01525 | 2.53612 | 372 ft | 16 kts | 356° |
| 2026-05-04 20:19 | 49.01640 | 2.53597 | 372 ft | 16 kts | 356° |
| 2026-05-04 20:19 | 49.01757 | 2.53582 | 372 ft | 17 kts | 355° |
| 2026-05-04 20:19 | 49.01857 | 2.53533 | 372 ft | 15 kts | 294° |
| 2026-05-04 20:19 | 49.01857 | 2.53373 | 372 ft | 15 kts | 265° |
| 2026-05-04 20:20 | 49.01848 | 2.53205 | 372 ft | 16 kts | 265° |
| 2026-05-04 20:20 | 49.01838 | 2.53032 | 372 ft | 16 kts | 266° |
| 2026-05-04 20:20 | 49.01829 | 2.52851 | 372 ft | 17 kts | 266° |
| 2026-05-04 20:20 | 49.01819 | 2.52671 | 372 ft | 17 kts | 265° |
| 2026-05-04 20:21 | 49.01809 | 2.52489 | 372 ft | 17 kts | 266° |
| 2026-05-04 20:21 | 49.01800 | 2.52312 | 372 ft | 15 kts | 265° |
| 2026-05-04 20:21 | 49.01908 | 2.52121 | 372 ft | 15 kts | 356° |
| 2026-05-04 20:22 | 49.02016 | 2.52107 | 372 ft | 15 kts | 356° |
| 2026-05-04 20:22 | 49.02104 | 2.52162 | 372 ft | 14 kts | 79° |
| 2026-05-04 20:22 | 49.02116 | 2.52326 | 372 ft | 25 kts | 86° |
| 2026-05-04 20:22 | 49.02153 | 2.53007 | 373 ft | 100 kts | 85° |
| 2026-05-04 20:23 | 49.02225 | 2.54373 | 373 ft | 159 kts | 85° |
| 2026-05-04 20:23 | 49.02325 | 2.56224 | 760 ft | 179 kts | 85° |
| 2026-05-04 20:23 | 49.02422 | 2.58133 | 1387 ft | 188 kts | 87° |
| 2026-05-04 20:23 | 49.02520 | 2.60143 | 2073 ft | 195 kts | 87° |
| 2026-05-04 20:24 | 49.02604 | 2.62232 | 2613 ft | 207 kts | 88° |
| 2026-05-04 20:24 | 49.02691 | 2.64492 | 3089 ft | 225 kts | 88° |
| 2026-05-04 20:24 | 49.02796 | 2.66977 | 3595 ft | 244 kts | 86° |
| 2026-05-04 20:24 | 49.02955 | 2.69592 | 4166 ft | 259 kts | 85° |
| 2026-05-04 20:25 | 49.03130 | 2.72324 | 5016 ft | 263 kts | 85° |
| 2026-05-04 20:25 | 49.03292 | 2.75091 | 5963 ft | 264 kts | 85° |
| 2026-05-04 20:25 | 49.03445 | 2.77874 | 6854 ft | 266 kts | 85° |
| 2026-05-04 20:25 | 49.03576 | 2.80644 | 7695 ft | 269 kts | 90° |
| 2026-05-04 20:26 | 49.03127 | 2.83378 | 8487 ft | 273 kts | 122° |
| 2026-05-04 20:26 | 49.01752 | 2.85329 | 9359 ft | 277 kts | 150° |
| 2026-05-04 20:26 | 48.99929 | 2.86150 | 10149 ft | 283 kts | 175° |
| 2026-05-04 20:26 | 48.97949 | 2.85682 | 10705 ft | 299 kts | 201° |
| 2026-05-04 20:27 | 48.96199 | 2.83857 | 11125 ft | 317 kts | 220° |
| 2026-05-04 20:27 | 48.94513 | 2.81605 | 11521 ft | 332 kts | 219° |
| 2026-05-04 20:27 | 48.92746 | 2.79299 | 12178 ft | 339 kts | 219° |
| 2026-05-04 20:27 | 48.90948 | 2.76987 | 12930 ft | 340 kts | 219° |
| 2026-05-04 20:28 | 48.89122 | 2.74655 | 13655 ft | 343 kts | 219° |
| 2026-05-04 20:28 | 48.87318 | 2.72363 | 14386 ft | 345 kts | 219° |
| 2026-05-04 20:28 | 48.85466 | 2.70019 | 15130 ft | 347 kts | 219° |
| 2026-05-04 20:28 | 48.83621 | 2.67688 | 15844 ft | 349 kts | 219° |
| 2026-05-04 20:29 | 48.81683 | 2.65489 | 16471 ft | 351 kts | 212° |
| 2026-05-04 20:29 | 48.79597 | 2.63617 | 17150 ft | 353 kts | 209° |
| 2026-05-04 20:29 | 48.77464 | 2.61792 | 17797 ft | 355 kts | 209° |
| 2026-05-04 20:29 | 48.75308 | 2.59935 | 18446 ft | 358 kts | 210° |
| 2026-05-04 20:30 | 48.73161 | 2.58063 | 19077 ft | 360 kts | 210° |
| 2026-05-04 20:30 | 48.70999 | 2.56160 | 19701 ft | 362 kts | 210° |
| 2026-05-04 20:30 | 48.68834 | 2.54242 | 20305 ft | 364 kts | 210° |
| 2026-05-04 20:30 | 48.66653 | 2.52305 | 20913 ft | 366 kts | 211° |
| 2026-05-04 20:31 | 48.64435 | 2.50333 | 21521 ft | 368 kts | 211° |
| 2026-05-04 20:31 | 48.62255 | 2.48394 | 22101 ft | 370 kts | 211° |
| 2026-05-04 20:31 | 48.60022 | 2.46409 | 22658 ft | 373 kts | 211° |
| 2026-05-04 20:31 | 48.57796 | 2.44432 | 23212 ft | 375 kts | 211° |
| 2026-05-04 20:32 | 48.55539 | 2.42429 | 23780 ft | 376 kts | 211° |
| 2026-05-04 20:32 | 48.53297 | 2.40439 | 24297 ft | 378 kts | 211° |
| 2026-05-04 20:32 | 48.51042 | 2.38441 | 24793 ft | 381 kts | 211° |
| 2026-05-04 20:32 | 48.48761 | 2.36420 | 25334 ft | 381 kts | 211° |
| 2026-05-04 20:33 | 48.46458 | 2.34383 | 25815 ft | 383 kts | 210° |
| 2026-05-04 20:33 | 48.44176 | 2.32366 | 25991 ft | 386 kts | 210° |
| 2026-05-04 20:33 | 48.41855 | 2.30319 | 26394 ft | 388 kts | 210° |
| 2026-05-04 20:33 | 48.39547 | 2.28284 | 26962 ft | 387 kts | 210° |
| 2026-05-04 20:34 | 48.37228 | 2.26241 | 27414 ft | 388 kts | 210° |
| 2026-05-04 20:34 | 48.34884 | 2.24181 | 27800 ft | 390 kts | 210° |
| 2026-05-04 20:34 | 48.32557 | 2.22135 | 28196 ft | 392 kts | 209° |
| 2026-05-04 20:34 | 48.30191 | 2.20059 | 28576 ft | 394 kts | 209° |
| 2026-05-04 20:35 | 48.27844 | 2.18002 | 28942 ft | 396 kts | 209° |
| 2026-05-04 20:35 | 48.25456 | 2.15910 | 29309 ft | 398 kts | 209° |
| 2026-05-04 20:35 | 48.23066 | 2.13819 | 29660 ft | 399 kts | 209° |
| 2026-05-04 20:35 | 48.20674 | 2.11729 | 29921 ft | 402 kts | 209° |
| 2026-05-04 20:36 | 48.15834 | 2.07509 | 29925 ft | 403 kts | 209° |
| 2026-05-04 20:36 | 48.10900 | 2.03629 | 29921 ft | 402 kts | 200° |
| 2026-05-04 20:37 | 48.05494 | 2.01614 | 29923 ft | 407 kts | 187° |
| 2026-05-04 20:37 | 47.99819 | 2.01517 | 29928 ft | 410 kts | 179° |
| 2026-05-04 20:38 | 47.94118 | 2.01858 | 29934 ft | 410 kts | 178° |
| 2026-05-04 20:38 | 47.88420 | 2.02205 | 29935 ft | 411 kts | 179° |
| 2026-05-04 20:39 | 47.82737 | 2.02542 | 29937 ft | 411 kts | 179° |
| 2026-05-04 20:39 | 47.77037 | 2.02878 | 29928 ft | 410 kts | 178° |
| 2026-05-04 20:40 | 47.71361 | 2.03213 | 29929 ft | 409 kts | 178° |
| 2026-05-04 20:40 | 47.65716 | 2.03163 | 29925 ft | 408 kts | 185° |
| 2026-05-04 20:41 | 47.60154 | 2.01611 | 29926 ft | 407 kts | 195° |
| 2026-05-04 20:41 | 47.54839 | 1.98765 | 29920 ft | 408 kts | 200° |
| 2026-05-04 20:42 | 47.49566 | 1.95711 | 29921 ft | 407 kts | 200° |
| 2026-05-04 20:42 | 47.44318 | 1.92675 | 29922 ft | 407 kts | 200° |
| 2026-05-04 20:43 | 47.39026 | 1.89620 | 29920 ft | 407 kts | 200° |
| 2026-05-04 20:43 | 47.33776 | 1.86599 | 29922 ft | 407 kts | 200° |
| 2026-05-04 20:44 | 47.28506 | 1.83574 | 29923 ft | 408 kts | 200° |
| 2026-05-04 20:44 | 47.23215 | 1.80539 | 29924 ft | 407 kts | 200° |
| 2026-05-04 20:45 | 47.17969 | 1.77544 | 29918 ft | 406 kts | 199° |
| 2026-05-04 20:45 | 47.12727 | 1.74588 | 29915 ft | 407 kts | 199° |
| 2026-05-04 20:46 | 47.07453 | 1.71622 | 29914 ft | 407 kts | 199° |
| 2026-05-04 20:46 | 47.02151 | 1.68645 | 29913 ft | 407 kts | 199° |
| 2026-05-04 20:47 | 46.96897 | 1.65699 | 29908 ft | 407 kts | 199° |
| 2026-05-04 20:47 | 46.91619 | 1.62746 | 29915 ft | 408 kts | 199° |
| 2026-05-04 20:48 | 46.86323 | 1.59792 | 29924 ft | 408 kts | 199° |
| 2026-05-04 20:48 | 46.81041 | 1.56848 | 29922 ft | 408 kts | 199° |
| 2026-05-04 20:49 | 46.75748 | 1.53908 | 29913 ft | 408 kts | 199° |